< < Back
Terminal Aerodrome Forecast


Current Version              Previous Versions:   1  2  3  4  5  6  7  8  9  

Terminal Aerodrome Forecast

109
FTUS42 KFFC 172259 AAA
TAFAHN
TAF AMD
KAHN 172259Z 1723/1818 VRB03KT 4SM -SHRA SCT006 BKN030
      TEMPO 1723/1801 2SM SHRA OVC006
     FM180100 00000KT 2SM -RA BR OVC004
     FM181400 07003KT 4SM BR OVC008
     FM181700 09005KT P6SM BKN022=



Latest METAR

063
SAUS70 KWBC 180300 RRA
MTRAHN
METAR KAHN 180251Z AUTO 00000KT 4SM RA BR BKN024 17/17 A3006 RMK AO2
SLP176 P0002 60027 T01720167 53013


USA.gov is the U.S. government's official web portal to all federal, state and local government web resources and services.